Sumner, Nebraska
Current Conditions -  °F | °C
As of 1:15 PM on Friday 24 Oct 2014 (Local Time) from KLXN Reporting Station
Clear Clear  
Wind Chill: 75°   Ceiling: Unl
Heat Index: 75°   Visibility: 10mi
Dew Point: 44°   Wind: 8mph
Humidity: 33%   Direction: 280°W
Pressure: 29.99"   Gusts: NA
Location:  40.95°N, 99.51°W
Report Text: KLXN 241815Z AUTO 28007KT 10SM CLR 24/07 A2999 RMK AO2 T02380066
Loading
Personal Weather Stations






























Interactive Weather Map
Tropical Storm Tracking
New forecast layout! Learn more

10-Day Weather Forecast

Advertisements
Track Severe Weather on mobile